Nearby METAR Reports

 

KOFF - Offutt Afb/Belle, Nebraska, USA
Distance from station: SE 6mi, 10km
Updated: 08/14/2018 11:56am
Clear
Clear
 Wind from ESE
Wind: ESE 5 mph , 7 km/h
Temperature: 72°F , 22°C
Dew Point: 70°F , 21°C
Humidity: 94%
Barometer: 29.94 inHg , 1013.9 hPa
Clouds: Clear
Visibility: 10 miles , 16 km
2018/08/14 16:56 KOFF 141656Z AUTO 12004KT 10SM CLR 22/21 A2994 RMK AO2 SLP136 P0003 T02220206 $
KMLE - Omaha/Millard, Nebraska, USA
Distance from station: W 7mi, 11km
Updated: 08/14/2018 11:55am
Light rain, Overcast
Light rain, Overcast
 Wind from SE
Wind: SE 9 mph , 15 km/h
Temperature: 73°F , 23°C
Dew Point: 68°F , 20°C
Humidity: 83%
Barometer: 29.95 inHg , 1014.2 hPa
Summary: Light rain
Clouds: Overcast
Visibility: 10 miles , 16 km
Cloud details: Partly cloudy 3600 ft
Mostly cloudy 5000 ft
Overcast 10000 ft
2018/08/14 16:55 KMLE 141655Z AUTO 14008KT 10SM -RA SCT036 BKN050 OVC100 23/20 A2995 RMK AO2 T02320201
 
KOMA - Omaha/Eppley, Nebraska, USA
Distance from station: NNE 10mi, 15km
Updated: 08/14/2018 11:52am
Light rain, Overcast
Light rain, Overcast
 Wind from SSE
Wind: SSE 12 mph , 19 km/h
Temperature: 75°F , 24°C
Dew Point: 68°F , 20°C
Humidity: 78%
Barometer: 29.94 inHg , 1013.9 hPa
Summary: Light rain
Clouds: Overcast
Visibility: 10 miles , 16 km
Cloud details: Few Clouds 7000 ft
Partly cloudy 10000 ft
Overcast 12000 ft
2018/08/14 16:52 KOMA 141652Z 15010KT 10SM -RA FEW070 SCT100 OVC120 24/20 A2994 RMK AO2 SLP131 DZB02E10RAB28 P0000 T02390200
KCBF - Council Bluffs, Iowa, USA
Distance from station: ENE 12mi, 20km
Updated: 08/14/2018 11:55am
Mist, Clear
Mist, Clear
 Wind from S
Wind: S 6 mph , 9 km/h
Temperature: 72°F , 22°C
Dew Point: 70°F , 21°C
Humidity: 94%
Barometer: 29.95 inHg , 1014.2 hPa
Summary: Mist
Clouds: Clear
Visibility: 6 miles , 10 km
2018/08/14 16:55 KCBF 141655Z AUTO 18005KT 6SM BR CLR 22/21 A2995 RMK AO2 P0002
 
KBTA - Blair Muni, Nebraska, USA
Distance from station: NNW 17mi, 27km
Updated: 08/14/2018 11:55am
Partly cloudy
Partly cloudy
 Wind from SSE
Wind: SSE 8 mph , 13 km/h
Temperature: 77°F , 25°C
Dew Point: 70°F , 21°C
Humidity: 79%
Barometer: 29.96 inHg , 1014.6 hPa
Clouds: Partly cloudy
Visibility: 10 miles , 16 km
Cloud details: Partly cloudy 7000 ft
2018/08/14 16:55 KBTA 141655Z AUTO 15007KT 10SM SCT070 25/21 A2996 RMK AO2 T02450206
KPMV - Plattsmouth Muni, Nebraska, USA
Distance from station: SSE 17mi, 28km
Updated: 08/14/2018 11:55am
Light rain, Overcast
Light rain, Overcast
 Wind from E
Wind: E 5 mph , 7 km/h
Temperature: 72°F , 22°C
Dew Point: 70°F , 21°C
Humidity: 94%
Barometer: 29.94 inHg , 1013.9 hPa
Summary: Light rain
Clouds: Overcast
Visibility: 10 miles , 16 km
Cloud details: Partly cloudy 5000 ft
Partly cloudy 7500 ft
Overcast 9500 ft
2018/08/14 16:55 KPMV 141655Z AUTO 10004KT 10SM -RA SCT050 SCT075 OVC095 22/21 A2994 RMK AO2 P0003 T02230205
 
KAHQ - Wahoo, Nebraska, USA
Distance from station: W 32mi, 52km
Updated: 08/14/2018 11:50am
Mostly cloudy
Mostly cloudy
 Wind from ESE
Wind: ESE 9 mph , 15 km/h
Temperature: 77°F , 25°C
Dew Point: 73°F , 23°C
Humidity: 89%
Barometer: 29.95 inHg , 1014.2 hPa
Clouds: Mostly cloudy
Visibility: 10 miles , 16 km
Cloud details: Partly cloudy 1400 ft
Mostly cloudy 2200 ft
Mostly cloudy 4900 ft
2018/08/14 16:50 KAHQ 141650Z AUTO 11008KT 10SM SCT014 BKN022 BKN049 25/23 A2995 RMK AO2 T02520226
KFET - Fremont Muni Arp, Nebraska, USA
Distance from station: WNW 33mi, 53km
Updated: 08/14/2018 11:55am
Partly cloudy
Partly cloudy
 Wind from ESE
Wind: ESE 3 mph , 6 km/h
Temperature: 79°F , 26°C
Dew Point: 73°F , 23°C
Humidity: 84%
Barometer: 29.96 inHg , 1014.6 hPa
Clouds: Partly cloudy
Visibility: 10 miles , 16 km
Cloud details: Partly cloudy 1500 ft
Partly cloudy 6500 ft
Partly cloudy 7500 ft
2018/08/14 16:55 KFET 141655Z AUTO 11003KT 10SM SCT015 SCT065 SCT075 26/23 A2996 RMK AO2 T02600228
 
KRDK - Red Oak, Iowa, USA
Distance from station: ESE 39mi, 63km
Updated: 08/14/2018 11:55am
Light rain, Clear
Light rain, Clear
 Wind from E
Wind: E 6 mph , 9 km/h
Temperature: 72°F , 22°C
Dew Point: 72°F , 22°C
Humidity: 100%
Barometer: 29.95 inHg , 1014.2 hPa
Summary: Light rain
Clouds: Clear
Visibility: 5 miles , 8 km
2018/08/14 16:55 KRDK 141655Z AUTO 10005KT 5SM -RA CLR 22/22 A2995 RMK AO2
KTQE - Tekamah, Nebraska, USA
Distance from station: NNW 41mi, 66km
Updated: 08/14/2018 11:54am
Clear
Clear
 Wind from SE
Wind: SE 6 mph , 9 km/h
Temperature: 79°F , 26°C
Dew Point: 72°F , 22°C
Humidity: 79%
Barometer: 29.94 inHg , 1013.9 hPa
Clouds: Clear
Visibility: 10 miles , 16 km
2018/08/14 16:54 KTQE 141654Z AUTO 13005KT 10SM CLR 26/22 A2994 RMK AO2 SLP127 T02610217
 
KAFK - Nebraska City, Nebraska, USA
Distance from station: S 42mi, 67km
Updated: 08/14/2018 11:55am
Light rain, Overcast
Light rain, Overcast
 Wind from E
Wind: E 10 mph , 17 km/h, Gust: 17 mph , 28 km/h
Temperature: 70°F , 21°C
Dew Point: 70°F , 21°C
Humidity: 100%
Barometer: 29.94 inHg , 1013.9 hPa
Summary: Light rain
Clouds: Overcast
Visibility: 4 miles , 6 km
Cloud details: Partly cloudy 400 ft
Mostly cloudy 800 ft
Overcast 4500 ft
2018/08/14 16:55 KAFK 141655Z AUTO 09009G15KT 4SM -RA SCT004 BKN008 OVC045 21/21 A2994 RMK AO2 P0020 T02120212
KHNR - Harlan Muni, Iowa, USA
Distance from station: NE 43mi, 69km
Updated: 08/14/2018 11:55am

 Wind from SSE
Wind: SSE 5 mph , 7 km/h
Temperature: 73°F , 23°C
Dew Point: 70°F , 21°C
Humidity: 89%
Barometer: 29.96 inHg , 1014.6 hPa
Visibility: 10 miles , 16 km
2018/08/14 16:55 KHNR 141655Z AUTO 16004KT 10SM 23/21 A2996 RMK AO2
 
KSDA - Shenandoah Muni, Iowa, USA
Distance from station: SE 43mi, 69km
Updated: 08/14/2018 11:55am
Light rain, Clear
Light rain, Clear
 Wind from ENE
Wind: ENE 3 mph , 6 km/h
Temperature: 72°F , 22°C
Dew Point: 72°F , 22°C
Humidity: 100%
Barometer: 29.94 inHg , 1013.9 hPa
Summary: Light rain
Clouds: Clear
Visibility: 1 3/4 miles , 2.8 km
2018/08/14 16:55 KSDA 141655Z AUTO 07003KT 1 3/4SM -RA CLR 22/22 A2994 RMK AO2
KLNK - Lincoln, Nebraska, USA
Distance from station: WSW 47mi, 76km
Updated: 08/14/2018 11:53am
Light rain, Mist, Overcast
Light rain, Mist, Overcast
 Wind from ESE
Wind: ESE 12 mph , 19 km/h
Temperature: 72°F , 22°C
Dew Point: 66°F , 19°C
Humidity: 83%
Barometer: 29.96 inHg , 1014.6 hPa
Summary: Light rain, Mist
Clouds: Overcast
Visibility: 6 miles , 10 km
Cloud details: Few Clouds 1200 ft
Mostly cloudy 3900 ft
Overcast 7000 ft
2018/08/14 16:53 KLNK 141653Z 12010KT 6SM -RA BR FEW012 BKN039 OVC070 22/19 A2996 RMK AO2 SLP134 P0002 T02170194
 
KAIO - Atlantic, Iowa, USA
Distance from station: ENE 51mi, 82km
Updated: 08/14/2018 11:55am
Clear
Clear
 Wind from S
Wind: S 5 mph , 7 km/h
Temperature: 73°F , 23°C
Dew Point: 70°F , 21°C
Humidity: 89%
Barometer: 29.96 inHg , 1014.6 hPa
Clouds: Clear
Visibility: 10 miles , 16 km
2018/08/14 16:55 KAIO 141655Z AUTO 18004KT 10SM CLR 23/21 A2996 RMK AO2
KICL - Clarinda, Iowa, USA
Distance from station: ESE 60mi, 97km
Updated: 08/14/2018 11:55am
Light rain, Few clouds
Light rain, Few clouds
 Wind from E
Wind: E 5 mph , 7 km/h
Temperature: 72°F , 22°C
Dew Point: 70°F , 21°C
Humidity: 94%
Barometer: 29.95 inHg , 1014.2 hPa
Summary: Light rain
Clouds: Few Clouds
Visibility: 6 miles , 10 km
Cloud details: Few Clouds 4800 ft
2018/08/14 16:55 KICL 141655Z AUTO 08004KT 6SM -RA FEW048 22/21 A2995 RMK AO2 P0009
 
KDNS - Denison, Iowa, USA
Distance from station: NNE 62mi, 100km
Updated: 08/14/2018 11:55am
Clear
Clear
 Wind from SE
Wind: SE 5 mph , 7 km/h
Temperature: 81°F , 27°C
Heat Index: 86°F , 30°C
Dew Point: 73°F , 23°C
Humidity: 79%
Barometer: 29.96 inHg , 1014.6 hPa
Clouds: Clear
Visibility: 7 miles , 11 km
2018/08/14 16:55 KDNS 141655Z AUTO 13004KT 7SM CLR 27/23 A2996 RMK AO2
KADU - Audubon, Iowa, USA
Distance from station: ENE 65mi, 105km
Updated: 08/14/2018 11:55am
Clear
Clear
 Wind from calm
Wind: Calm
Temperature: 75°F , 24°C
Dew Point: 70°F , 21°C
Humidity: 83%
Barometer: 29.97 inHg , 1014.9 hPa
Clouds: Clear
Visibility: 10 miles , 16 km
2018/08/14 16:55 KADU 141655Z AUTO 00000KT 10SM CLR 24/21 A2997 RMK AO2
 
KOLU - Columbus Muni, Nebraska, USA
Distance from station: WNW 71mi, 115km
Updated: 08/14/2018 11:56am
Clear
Clear
 Wind from NNW
Wind: NNW 8 mph , 13 km/h
Temperature: 75°F , 24°C
Dew Point: 70°F , 21°C
Humidity: 83%
Barometer: 29.96 inHg , 1014.6 hPa
Clouds: Clear
Visibility: 10 miles , 16 km
2018/08/14 16:56 KOLU 141656Z AUTO 33007KT 10SM CLR 24/21 A2996 RMK AO2 SLP135 T02390211
KBIE - Beatrice Municip, Nebraska, USA
Distance from station: SSW 75mi, 120km
Updated: 08/14/2018 11:55am
Overcast
Overcast
 Wind from NNE
Wind: NNE 3 mph , 6 km/h
Temperature: 73°F , 23°C
Dew Point: 70°F , 21°C
Humidity: 89%
Barometer: 29.91 inHg , 1012.9 hPa
Clouds: Overcast
Visibility: 7 miles , 11 km
Cloud details: Mostly cloudy 1300 ft
Mostly cloudy 3900 ft
Overcast 6500 ft
2018/08/14 16:55 KBIE 141655Z AUTO 02003KT 7SM BKN013 BKN039 OVC065 23/21 A2991 RMK AO2 P0017 T02260214